Upstream stations:
Downstream station:
SHEF ID: BVRO2 Beaver River at Beaver, OK
STATION TYPE:
Regulating: Stage = 9.00, Flow = 2101
PRECIP STAGE RIV-FLOW VOLTAGE BAT-LOAD
in ft cfs volt volt
Ccp-Rev Ccp-Rev Ccp-Rev Ccp-Rev Ccp-Rev
(US/Central)
03/15 00:00 0.00 2.15 0 12.96 12.83
03/15 01:00 0.00 2.15 0 12.95 12.77
03/15 02:00 0.00 2.15 0 12.93 12.77
03/15 03:00 0.00 2.15 0 12.92 12.71
03/15 04:00 0.00 2.16 0 12.90 12.71
03/15 05:00 0.00 2.16 0 12.89 12.71
03/15 06:00 0.00 2.16 0 12.87 12.71
03/15 07:00 0.00 2.16 0 12.85 12.65
03/15 08:00 0.00 2.16 0 13.11 12.65
03/15 09:00 0.00 2.16 0 13.63 12.89
03/15 10:00 0.00 2.16 0 13.89 13.24
03/15 11:00 0.00 2.16 0 14.01 13.36
03/15 12:00 0.00 2.17 0 14.03 13.42
03/15 13:00 0.00 2.17 0 13.47 13.48
03/15 14:00 0.00 2.17 0 13.33 13.12
03/15 15:00 0.00 2.17 0 13.24 13.07
03/15 16:00 0.00 2.17 0 13.19 13.00
03/15 17:00 0.00 2.17 0 13.15 13.00
03/15 18:00 0.00 2.16 0 13.12 12.95
03/15 19:00 0.00 2.16 0 13.08 12.89
03/15 20:00 0.00 2.16 0 13.04 12.89
03/15 21:00 0.00 2.16 0 13.02 12.89
03/15 22:00 0.00 2.16 0 12.99 12.83
03/15 23:00 0.00 2.16 0 12.97 12.83